createdAt,value
2022-09-24T00:01:26.394Z,100846.28
2022-09-24T00:03:56.026Z,100859.09
2022-09-24T00:06:23.742Z,100838.13
2022-09-24T00:08:52.432Z,100840.41
2022-09-24T00:11:21.843Z,100834.00
2022-09-24T00:13:50.205Z,100809.75
2022-09-24T00:16:18.887Z,100797.97
2022-09-24T00:18:45.689Z,100799.19
2022-09-24T00:21:24.504Z,100793.72
2022-09-24T00:23:53.456Z,100793.81
2022-09-24T00:26:39.712Z,100797.97
2022-09-24T00:29:08.123Z,100786.88
2022-09-24T00:31:35.779Z,100790.47
2022-09-24T00:34:02.982Z,100781.88
2022-09-24T00:36:30.024Z,100782.78
2022-09-24T00:38:59.085Z,100769.56
2022-09-24T00:41:28.984Z,100755.72
2022-09-24T00:43:56.454Z,100758.84
2022-09-24T00:46:43.217Z,100759.38
2022-09-24T00:49:19.511Z,100760.03
2022-09-24T00:51:50.339Z,100748.03
2022-09-24T00:54:24.779Z,100745.38
2022-09-24T00:56:53.950Z,100747.56
2022-09-24T00:59:24.000Z,100759.03
2022-09-24T01:01:54.013Z,100744.47
2022-09-24T01:04:21.946Z,100749.94
2022-09-24T01:06:50.144Z,100755.03
2022-09-24T01:09:19.148Z,100754.47
2022-09-24T01:11:58.312Z,100754.75
2022-09-24T01:14:50.143Z,100737.09
2022-09-24T01:17:46.313Z,100736.41
2022-09-24T01:20:37.891Z,100737.38
2022-09-24T01:23:32.361Z,100722.72
2022-09-24T01:26:38.473Z,100726.00
2022-09-24T01:29:33.165Z,100729.19
2022-09-24T01:32:11.599Z,100722.00
2022-09-24T01:34:43.712Z,100727.09
2022-09-24T01:37:14.842Z,100723.56
2022-09-24T01:39:45.404Z,100721.44
2022-09-24T01:42:13.670Z,100726.53
2022-09-24T01:44:44.353Z,100721.97
2022-09-24T01:47:18.613Z,100719.72
2022-09-24T01:49:46.078Z,100728.19
2022-09-24T01:52:18.747Z,100733.78
2022-09-24T01:54:52.043Z,100724.63
2022-09-24T01:57:24.209Z,100725.19
2022-09-24T02:00:12.082Z,100728.66
2022-09-24T02:02:54.785Z,100714.97
2022-09-24T02:05:38.966Z,100716.72
2022-09-24T02:08:13.197Z,100705.09
2022-09-24T02:10:57.803Z,100710.53
2022-09-24T02:13:29.034Z,100718.91
2022-09-24T02:16:00.159Z,100711.28
2022-09-24T02:18:34.708Z,100705.84
2022-09-24T02:21:06.282Z,100708.56
2022-09-24T02:23:37.198Z,100704.41
2022-09-24T02:26:05.579Z,100697.69
2022-09-24T02:28:33.506Z,100706.19
2022-09-24T02:31:12.415Z,100699.91
2022-09-24T02:34:00.756Z,100698.50
2022-09-24T02:36:29.207Z,100697.22
2022-09-24T02:38:56.345Z,100691.13
2022-09-24T02:41:25.054Z,100695.97
2022-09-24T02:43:52.860Z,100692.81
2022-09-24T02:46:20.230Z,100692.81
2022-09-24T02:48:47.001Z,100693.81
2022-09-24T02:51:13.838Z,100688.13
2022-09-24T02:53:40.449Z,100682.13
2022-09-24T02:56:08.953Z,100673.94
2022-09-24T02:58:37.624Z,100673.38
2022-09-24T03:01:05.341Z,100666.69
2022-09-24T03:03:32.915Z,100676.19
2022-09-24T03:05:59.869Z,100673.19
2022-09-24T03:08:27.288Z,100669.59
2022-09-24T03:10:56.248Z,100671.09
2022-09-24T03:13:23.642Z,100663.31
2022-09-24T03:15:50.642Z,100659.66
2022-09-24T03:18:17.499Z,100654.44
2022-09-24T03:20:44.431Z,100653.69
2022-09-24T03:23:11.446Z,100654.16
2022-09-24T03:25:38.759Z,100649.72
2022-09-24T03:28:05.603Z,100646.13
2022-09-24T03:30:50.715Z,100642.84
2022-09-24T03:33:17.484Z,100638.38
2022-09-24T03:35:44.278Z,100627.78
2022-09-24T03:38:11.180Z,100626.91
2022-09-24T03:40:37.934Z,100623.56
2022-09-24T03:43:04.773Z,100625.53
2022-09-24T03:45:31.701Z,100627.63
2022-09-24T03:47:58.523Z,100629.72
2022-09-24T03:50:25.796Z,100616.38
2022-09-24T03:52:52.496Z,100620.59
2022-09-24T03:55:19.460Z,100619.47
2022-09-24T03:57:46.638Z,100609.34
2022-09-24T04:00:13.944Z,100608.50
2022-09-24T04:02:41.142Z,100609.00
2022-09-24T04:05:08.330Z,100599.88
2022-09-24T04:07:35.115Z,100599.88
2022-09-24T04:10:01.980Z,100602.97
2022-09-24T04:12:29.674Z,100594.22
2022-09-24T04:14:56.415Z,100598.78
2022-09-24T04:17:23.291Z,100588.78
2022-09-24T04:19:54.068Z,100594.69
2022-09-24T04:22:21.443Z,100593.91
2022-09-24T04:24:48.183Z,100597.88
2022-09-24T04:27:15.354Z,100600.59
2022-09-24T04:29:42.013Z,100593.50
2022-09-24T04:32:08.906Z,100594.63
2022-09-24T04:34:35.818Z,100586.25
2022-09-24T04:37:02.595Z,100576.38
2022-09-24T04:39:29.393Z,100573.66
2022-09-24T04:41:56.195Z,100572.66
2022-09-24T04:44:23.686Z,100574.97
2022-09-24T04:46:50.779Z,100565.09
2022-09-24T04:49:17.564Z,100560.31
2022-09-24T04:51:44.462Z,100563.47
2022-09-24T04:54:11.337Z,100557.94
2022-09-24T04:56:38.343Z,100561.53
2022-09-24T04:59:05.146Z,100542.28
2022-09-24T05:01:32.106Z,100545.44
2022-09-24T05:03:59.104Z,100545.66
2022-09-24T05:06:25.848Z,100541.53
2022-09-24T05:08:52.927Z,100537.94
2022-09-24T05:11:19.984Z,100540.53
2022-09-24T05:13:46.737Z,100534.22
2022-09-24T05:16:13.644Z,100531.41
2022-09-24T05:18:42.576Z,100532.50
2022-09-24T05:21:09.670Z,100536.47
2022-09-24T05:23:36.492Z,100567.81
2022-09-24T05:26:22.014Z,100569.13
2022-09-24T05:28:48.924Z,100567.31
2022-09-24T05:31:15.813Z,100571.63
2022-09-24T05:33:42.840Z,100564.69
2022-09-24T05:36:09.775Z,100568.16
2022-09-24T05:38:38.838Z,100561.38
2022-09-24T05:41:08.379Z,100551.53
2022-09-24T05:43:35.183Z,100520.94
2022-09-24T05:46:02.240Z,100524.28
2022-09-24T05:48:29.217Z,100527.38
2022-09-24T05:50:56.481Z,100527.25
2022-09-24T05:53:23.901Z,100524.66
2022-09-24T05:55:50.930Z,100526.03
2022-09-24T05:58:18.252Z,100530.16
2022-09-24T06:00:47.697Z,100529.41
2022-09-24T06:03:16.759Z,100530.16
2022-09-24T06:05:49.133Z,100535.34
2022-09-24T06:08:17.483Z,100526.81
2022-09-24T06:10:48.117Z,100532.00
2022-09-24T06:13:18.546Z,100524.44
2022-09-24T06:15:45.508Z,100531.78
2022-09-24T06:18:12.678Z,100531.13
2022-09-24T06:20:40.469Z,100522.38
2022-09-24T06:23:07.909Z,100529.88
2022-09-24T06:25:34.925Z,100523.09
2022-09-24T06:28:04.048Z,100523.31
2022-09-24T06:30:38.139Z,100523.78
2022-09-24T06:33:07.847Z,100529.56
2022-09-24T06:35:36.835Z,100533.16
2022-09-24T06:38:04.935Z,100538.22
2022-09-24T06:40:36.485Z,100539.22
2022-09-24T06:43:14.345Z,100544.75
2022-09-24T06:45:43.223Z,100548.81
2022-09-24T06:48:12.337Z,100538.72
2022-09-24T06:50:44.694Z,100547.38
2022-09-24T06:53:12.287Z,100554.78
2022-09-24T06:55:39.531Z,100557.84
2022-09-24T06:58:12.475Z,100565.91
2022-09-24T07:00:40.691Z,100569.41
2022-09-24T07:03:08.239Z,100566.91
2022-09-24T07:05:39.550Z,100575.88
2022-09-24T07:08:09.549Z,100571.28
2022-09-24T07:10:36.346Z,100579.72
2022-09-24T07:13:03.332Z,100595.78
2022-09-24T07:15:30.192Z,100599.34
2022-09-24T07:17:57.320Z,100609.41
2022-09-24T07:20:28.285Z,100619.78
2022-09-24T07:22:56.060Z,100621.84
2022-09-24T07:25:22.859Z,100631.56
2022-09-24T07:27:49.693Z,100636.31
2022-09-24T07:30:16.942Z,100650.19
2022-09-24T07:32:43.900Z,100656.22
2022-09-24T07:35:10.692Z,100673.41
2022-09-24T07:37:37.453Z,100683.28
2022-09-24T07:40:04.571Z,100705.31
2022-09-24T07:42:31.412Z,100715.28
2022-09-24T07:45:01.311Z,100720.44
2022-09-24T07:47:28.067Z,100735.88
2022-09-24T07:49:54.794Z,100732.69
2022-09-24T07:52:22.189Z,100743.91
2022-09-24T07:54:49.669Z,100753.09
2022-09-24T07:57:16.391Z,100768.03
2022-09-24T07:59:44.886Z,100780.50
2022-09-24T08:02:17.088Z,100770.91
2022-09-24T08:04:44.677Z,100779.66
2022-09-24T08:07:12.900Z,100798.41
2022-09-24T08:09:40.033Z,100801.78
2022-09-24T08:12:07.588Z,100813.34
2022-09-24T08:14:34.352Z,100828.72
2022-09-24T08:17:01.938Z,100851.06
2022-09-24T08:19:31.032Z,100859.41
2022-09-24T08:21:58.513Z,100870.13
2022-09-24T08:24:25.985Z,100884.13
2022-09-24T08:26:52.765Z,100914.56
2022-09-24T08:29:19.623Z,100914.44
2022-09-24T08:31:46.413Z,100946.88
2022-09-24T08:34:15.271Z,100959.59
2022-09-24T08:36:43.281Z,100968.25
2022-09-24T08:39:11.788Z,100986.34
2022-09-24T08:41:50.605Z,101011.75
2022-09-24T08:44:50.428Z,101021.91
2022-09-24T08:47:43.402Z,101044.44
2022-09-24T08:50:23.305Z,101048.69
2022-09-24T08:52:59.722Z,101060.53
2022-09-24T08:55:44.413Z,101061.50
2022-09-24T08:58:29.079Z,101052.97
2022-09-24T09:01:15.245Z,101068.03
2022-09-24T09:04:03.702Z,101059.44
2022-09-24T09:07:07.594Z,101073.91
2022-09-24T09:09:46.629Z,101078.88
2022-09-24T09:12:19.942Z,101079.88
2022-09-24T09:14:56.138Z,101080.97
2022-09-24T09:17:43.050Z,101093.63
2022-09-24T09:20:35.313Z,101087.34
2022-09-24T09:23:18.229Z,101090.19
2022-09-24T09:25:53.481Z,101098.50
2022-09-24T09:28:21.199Z,101107.84
2022-09-24T09:30:54.277Z,101111.09
2022-09-24T09:33:40.156Z,101108.97
2022-09-24T09:36:26.134Z,101109.38
2022-09-24T09:39:13.390Z,101108.16
2022-09-24T09:42:04.734Z,101112.38
2022-09-24T09:44:40.573Z,101111.34
2022-09-24T09:47:37.884Z,101120.44
2022-09-24T09:50:12.780Z,101120.03
2022-09-24T09:52:40.320Z,101118.13
2022-09-24T09:55:08.247Z,101115.63
2022-09-24T09:57:36.870Z,101113.53
2022-09-24T10:00:05.387Z,101118.50
2022-09-24T10:02:35.468Z,101119.50
2022-09-24T10:05:04.591Z,101117.97
2022-09-24T10:07:32.930Z,101127.41
2022-09-24T10:10:25.323Z,101117.81
2022-09-24T10:16:17.466Z,101121.09
2022-09-24T10:18:49.339Z,101126.47
2022-09-24T10:21:35.201Z,101127.47
2022-09-24T10:24:05.519Z,101126.53
2022-09-24T10:26:44.697Z,101134.34
2022-09-24T10:29:37.746Z,101139.56
2022-09-24T10:32:07.908Z,101148.84
2022-09-24T10:34:35.657Z,101150.34
2022-09-24T10:37:13.708Z,101148.38
2022-09-24T10:39:41.182Z,101158.44
2022-09-24T10:42:26.131Z,101144.31
2022-09-24T10:44:54.525Z,101150.72
2022-09-24T10:47:44.797Z,101160.56
2022-09-24T10:50:32.224Z,101164.84
2022-09-24T10:53:13.877Z,101170.13
2022-09-24T10:56:13.267Z,101176.09
2022-09-24T10:59:08.264Z,101188.31
2022-09-24T11:01:58.301Z,101200.44
2022-09-24T11:04:44.823Z,101201.03
2022-09-24T11:07:44.838Z,101200.56
2022-09-24T11:10:42.330Z,101212.00
2022-09-24T11:13:21.682Z,101200.66
2022-09-24T11:15:53.598Z,101208.59
2022-09-24T11:19:01.724Z,101222.16
2022-09-24T11:22:11.570Z,101215.00
2022-09-24T11:24:55.518Z,101213.44
2022-09-24T11:27:28.521Z,101208.66
2022-09-24T11:30:04.674Z,101212.69
2022-09-24T11:32:57.981Z,101218.19
2022-09-24T11:35:42.616Z,101219.25
2022-09-24T11:38:10.650Z,101236.97
2022-09-24T11:40:59.107Z,101234.47
2022-09-24T11:43:48.783Z,101231.88
2022-09-24T11:46:31.089Z,101222.38
2022-09-24T11:49:12.302Z,101225.16
2022-09-24T11:51:59.179Z,101219.00
2022-09-24T11:54:56.843Z,101225.72
2022-09-24T11:57:40.481Z,101215.03
2022-09-24T12:00:32.411Z,101222.09
2022-09-24T12:03:07.847Z,101222.25
2022-09-24T12:05:44.525Z,101215.75
2022-09-24T12:08:27.853Z,101215.59
2022-09-24T12:11:06.926Z,101232.78
2022-09-24T12:13:41.964Z,101221.59
2022-09-24T12:16:13.682Z,101226.22
2022-09-24T12:18:54.753Z,101225.97
2022-09-24T12:21:33.299Z,101222.75
2022-09-24T12:24:13.747Z,101236.31
2022-09-24T12:26:42.883Z,101242.09
2022-09-24T12:29:55.701Z,101250.91
2022-09-24T12:32:53.065Z,101245.31
2022-09-24T12:35:28.774Z,101247.78
2022-09-24T12:38:04.976Z,101239.19
2022-09-24T12:40:56.221Z,101242.72
2022-09-24T12:43:31.179Z,101244.19
2022-09-24T12:46:06.220Z,101241.00
2022-09-24T12:48:37.486Z,101239.25
2022-09-24T12:51:07.387Z,101236.06
2022-09-24T12:53:40.687Z,101231.88
2022-09-24T12:56:09.803Z,101225.50
2022-09-24T12:58:38.716Z,101229.56
2022-09-24T13:01:24.377Z,101224.09
2022-09-24T13:04:16.595Z,101225.09
2022-09-24T13:06:47.946Z,101229.88
2022-09-24T13:09:26.766Z,101224.22
2022-09-24T13:12:32.401Z,101225.75
2022-09-24T13:15:06.731Z,101227.09
2022-09-24T13:17:35.671Z,101222.81
2022-09-24T13:20:08.443Z,101211.13
2022-09-24T13:22:37.745Z,101207.88
2022-09-24T13:25:07.937Z,101204.38
2022-09-24T13:27:41.912Z,101195.81
2022-09-24T13:30:09.647Z,101203.63
2022-09-24T13:32:46.929Z,101198.03
2022-09-24T13:35:24.393Z,101198.25
2022-09-24T13:37:58.383Z,101190.16
2022-09-24T13:40:29.076Z,101184.94
2022-09-24T13:43:11.893Z,101185.03
2022-09-24T13:45:43.871Z,101186.78
2022-09-24T13:48:38.067Z,101179.47
2022-09-24T13:51:11.915Z,101176.72
2022-09-24T13:53:52.134Z,101173.72
2022-09-24T13:56:24.095Z,101163.59
2022-09-24T13:59:04.768Z,101153.16
2022-09-24T14:01:38.927Z,101146.50
2022-09-24T14:04:21.238Z,101130.34
2022-09-24T14:06:54.751Z,101121.66
2022-09-24T14:09:36.420Z,101116.00
2022-09-24T14:12:22.112Z,101113.84
2022-09-24T14:14:58.249Z,101103.84
2022-09-24T14:17:26.419Z,101096.69
2022-09-24T14:19:57.415Z,101088.72
2022-09-24T14:22:32.414Z,101082.50
2022-09-24T14:25:31.739Z,101077.22
2022-09-24T14:28:01.263Z,101064.00
2022-09-24T14:30:30.648Z,101057.47
2022-09-24T14:33:07.373Z,101050.47
2022-09-24T14:35:37.171Z,101044.84
2022-09-24T14:38:24.649Z,101036.34
2022-09-24T14:41:05.400Z,101027.41
2022-09-24T14:43:41.856Z,101012.41
2022-09-24T14:46:17.569Z,100996.31
2022-09-24T14:48:44.973Z,100991.56
2022-09-24T14:51:28.779Z,100975.72
2022-09-24T14:54:06.504Z,100967.81
2022-09-24T14:56:35.201Z,100962.59
2022-09-24T14:59:02.162Z,100948.66
2022-09-24T15:01:33.983Z,100938.97
2022-09-24T15:04:08.296Z,100926.53
2022-09-24T15:06:37.811Z,100913.38
2022-09-24T15:09:16.042Z,100907.91
2022-09-24T15:11:43.873Z,100892.25
2022-09-24T15:14:16.639Z,100885.25
2022-09-24T15:16:47.103Z,100877.16
2022-09-24T15:19:27.673Z,100871.03
2022-09-24T15:21:59.006Z,100857.38
2022-09-24T15:24:26.083Z,100847.59
2022-09-24T15:27:05.932Z,100831.94
2022-09-24T15:29:33.755Z,100823.66
2022-09-24T15:32:02.321Z,100813.00
2022-09-24T15:34:31.628Z,100800.19
2022-09-24T15:37:00.864Z,100784.44
2022-09-24T15:39:29.888Z,100769.16
2022-09-24T15:41:58.217Z,100749.56
2022-09-24T15:44:33.617Z,100731.19
2022-09-24T15:47:03.232Z,100726.88
2022-09-24T15:49:32.573Z,100704.78
2022-09-24T15:52:07.462Z,100684.75
2022-09-24T15:54:35.556Z,100673.53
2022-09-24T15:57:03.408Z,100673.75
2022-09-24T15:59:31.228Z,100634.91
2022-09-24T16:02:03.364Z,100625.66
2022-09-24T16:04:31.306Z,100620.56
2022-09-24T16:06:59.430Z,100605.91
2022-09-24T16:09:27.586Z,100600.72
2022-09-24T16:11:57.808Z,100592.25
2022-09-24T16:14:29.974Z,100599.09
2022-09-24T16:16:58.919Z,100587.88
2022-09-24T16:19:27.658Z,100578.41
2022-09-24T16:21:56.350Z,100571.50
2022-09-24T16:24:23.231Z,100559.13
2022-09-24T16:26:51.163Z,100551.28
2022-09-24T16:29:19.953Z,100549.09
2022-09-24T16:31:48.235Z,100541.47
2022-09-24T16:34:16.693Z,100538.03
2022-09-24T16:36:44.660Z,100556.13
2022-09-24T16:39:17.461Z,100560.81
2022-09-24T16:41:49.197Z,100542.84
2022-09-24T16:44:23.074Z,100529.47
2022-09-24T16:46:51.190Z,100500.31
2022-09-24T16:49:19.741Z,100498.97
2022-09-24T16:51:47.495Z,100495.09
2022-09-24T16:54:17.927Z,100494.09
2022-09-24T16:56:45.825Z,100455.34
2022-09-24T16:59:13.842Z,100445.53
2022-09-24T17:01:42.721Z,100445.84
2022-09-24T17:04:12.741Z,100441.50
2022-09-24T17:06:40.546Z,100436.78
2022-09-24T17:09:28.462Z,100426.00
2022-09-24T17:11:57.296Z,100416.81
2022-09-24T17:14:27.092Z,100410.63
2022-09-24T17:16:57.244Z,100403.22
2022-09-24T17:19:24.611Z,100397.31
2022-09-24T17:21:52.355Z,100398.03
2022-09-24T17:24:21.968Z,100386.34
2022-09-24T17:26:50.345Z,100382.63
2022-09-24T17:29:22.455Z,100381.75
2022-09-24T17:31:51.271Z,100430.34
2022-09-24T17:34:19.109Z,100423.13
2022-09-24T17:36:47.401Z,100424.56
2022-09-24T17:39:15.167Z,100419.66
2022-09-24T17:41:42.803Z,100418.06
2022-09-24T17:44:13.288Z,100421.13
2022-09-24T17:46:44.181Z,100405.06
2022-09-24T17:49:12.326Z,100401.31
2022-09-24T17:51:39.852Z,100405.19
2022-09-24T17:54:09.824Z,100394.13
2022-09-24T17:56:40.657Z,100396.41
2022-09-24T17:59:13.635Z,100386.66
2022-09-24T18:01:43.790Z,100394.59
2022-09-24T18:04:20.590Z,100389.84
2022-09-24T18:06:49.050Z,100386.69
2022-09-24T18:09:18.335Z,100387.22
2022-09-24T18:11:51.614Z,100394.88
2022-09-24T18:14:21.538Z,100394.81
2022-09-24T18:16:49.606Z,100387.78
2022-09-24T18:19:18.207Z,100391.50
2022-09-24T18:22:08.309Z,100341.22
2022-09-24T18:24:37.090Z,100329.03
2022-09-24T18:27:07.515Z,100329.47
2022-09-24T18:29:35.235Z,100330.75
2022-09-24T18:32:04.641Z,100337.94
2022-09-24T18:34:34.364Z,100340.06
2022-09-24T18:37:01.857Z,100340.63
2022-09-24T18:39:29.731Z,100329.16
2022-09-24T18:41:57.316Z,100322.97
2022-09-24T18:44:24.122Z,100309.34
2022-09-24T18:46:52.610Z,100306.63
2022-09-24T18:49:19.696Z,100297.69
2022-09-24T18:51:47.671Z,100298.59
2022-09-24T18:54:18.631Z,100290.81
2022-09-24T18:56:50.698Z,100281.66
2022-09-24T18:59:38.760Z,100279.47
2022-09-24T19:02:22.022Z,100268.84
2022-09-24T19:04:51.261Z,100265.69
2022-09-24T19:07:19.080Z,100271.72
2022-09-24T19:09:46.882Z,100267.53
2022-09-24T19:12:19.461Z,100258.50
2022-09-24T19:14:47.094Z,100259.66
2022-09-24T19:17:16.260Z,100256.78
2022-09-24T19:19:52.111Z,100245.31
2022-09-24T19:22:20.359Z,100246.59
2022-09-24T19:24:49.720Z,100244.69
2022-09-24T19:27:17.438Z,100215.00
2022-09-24T19:29:45.594Z,100200.53
2022-09-24T19:32:15.447Z,100197.78
2022-09-24T19:34:43.334Z,100206.81
2022-09-24T19:37:11.729Z,100200.34
2022-09-24T19:39:42.514Z,100199.63
2022-09-24T19:42:10.630Z,100190.75
2022-09-24T19:44:40.202Z,100198.03
2022-09-24T19:47:10.930Z,100193.75
2022-09-24T19:49:39.715Z,100187.41
2022-09-24T19:52:07.612Z,100172.06
2022-09-24T19:54:35.077Z,100165.06
2022-09-24T19:57:02.770Z,100168.63
2022-09-24T19:59:32.349Z,100161.44
2022-09-24T20:02:00.109Z,100162.59
2022-09-24T20:04:28.382Z,100148.69
2022-09-24T20:06:56.774Z,100151.41
2022-09-24T20:09:24.509Z,100137.06
2022-09-24T20:11:52.487Z,100136.34
2022-09-24T20:14:21.238Z,100129.16
2022-09-24T20:16:48.873Z,100125.56
2022-09-24T20:19:17.128Z,100129.44
2022-09-24T20:21:44.070Z,100120.97
2022-09-24T20:24:17.199Z,100114.66
2022-09-24T20:27:04.239Z,100109.91
2022-09-24T20:29:32.980Z,100107.75
2022-09-24T20:32:00.978Z,100107.63
2022-09-24T20:34:33.704Z,100143.66
2022-09-24T20:37:03.205Z,100151.97
2022-09-24T20:39:32.271Z,100147.53
2022-09-24T20:42:06.371Z,100146.53
2022-09-24T20:44:35.697Z,100134.31
2022-09-24T20:47:04.874Z,100131.59
2022-09-24T20:49:33.830Z,100136.47
2022-09-24T20:52:03.406Z,100139.06
2022-09-24T20:54:34.091Z,100136.34
2022-09-24T20:57:03.956Z,100140.22
2022-09-24T20:59:32.016Z,100139.94
2022-09-24T21:02:04.239Z,100138.19
2022-09-24T21:04:40.640Z,100142.94
2022-09-24T21:07:10.124Z,100140.78
2022-09-24T21:09:38.043Z,100133.19
2022-09-24T21:12:08.361Z,100137.34
2022-09-24T21:14:38.837Z,100134.78
2022-09-24T21:17:08.833Z,100138.50
2022-09-24T21:19:38.016Z,100139.34
2022-09-24T21:22:08.045Z,100130.47
2022-09-24T21:24:38.202Z,100122.69
2022-09-24T21:27:07.678Z,100130.75
2022-09-24T21:29:35.574Z,100127.00
2022-09-24T21:32:03.465Z,100126.00
2022-09-24T21:34:31.281Z,100118.84
2022-09-24T21:36:58.631Z,100122.56
2022-09-24T21:39:29.280Z,100135.31
2022-09-24T21:41:59.648Z,100127.44
2022-09-24T21:44:31.278Z,100118.69
2022-09-24T21:46:59.542Z,100117.66
2022-09-24T21:49:27.476Z,100117.97
2022-09-24T21:51:57.136Z,100120.13
2022-09-24T21:54:24.313Z,100113.81
2022-09-24T21:56:54.579Z,100120.72
2022-09-24T21:59:40.393Z,100112.53
2022-09-24T22:02:10.409Z,100109.22
2022-09-24T22:04:38.655Z,100115.53
2022-09-24T22:07:07.551Z,100121.13
2022-09-24T22:09:35.387Z,100115.56
2022-09-24T22:12:04.865Z,100119.25
2022-09-24T22:14:35.260Z,100116.81
2022-09-24T22:17:04.620Z,100117.53
2022-09-24T22:19:33.107Z,100116.41
2022-09-24T22:22:00.809Z,100111.09
2022-09-24T22:24:28.769Z,100116.81
2022-09-24T22:26:57.823Z,100102.06
2022-09-24T22:29:25.257Z,100105.78
2022-09-24T22:31:53.320Z,100110.09
2022-09-24T22:34:39.236Z,100104.34
2022-09-24T22:37:07.715Z,100107.53
2022-09-24T22:39:36.050Z,100104.94
2022-09-24T22:42:03.532Z,100099.59
2022-09-24T22:44:32.274Z,100096.63
2022-09-24T22:46:59.064Z,100099.91
2022-09-24T22:49:27.203Z,100096.63
2022-09-24T22:51:54.861Z,100087.84
2022-09-24T22:54:21.877Z,100091.16
2022-09-24T22:56:49.573Z,100115.22
2022-09-24T22:59:17.821Z,100123.28
2022-09-24T23:01:45.819Z,100113.38
2022-09-24T23:04:15.152Z,100119.53
2022-09-24T23:06:43.862Z,100124.44
2022-09-24T23:09:11.669Z,100122.69
2022-09-24T23:11:39.565Z,100127.16
2022-09-24T23:14:12.192Z,100121.25
2022-09-24T23:16:40.119Z,100111.66
2022-09-24T23:19:12.986Z,100112.66
2022-09-24T23:21:40.831Z,100111.66
2022-09-24T23:24:14.125Z,100116.66
2022-09-24T23:26:41.940Z,100077.78
2022-09-24T23:29:10.706Z,100071.50
2022-09-24T23:31:37.645Z,100077.06
2022-09-24T23:34:07.709Z,100068.91
2022-09-24T23:36:36.648Z,100072.22
2022-09-24T23:39:04.780Z,100067.19
2022-09-24T23:41:32.485Z,100066.03
2022-09-24T23:44:00.372Z,100072.06
2022-09-24T23:46:27.916Z,100067.19
2022-09-24T23:48:56.541Z,100062.44
2022-09-24T23:51:23.450Z,100072.78
2022-09-24T23:53:50.847Z,100076.63
2022-09-24T23:56:19.641Z,100080.63
2022-09-24T23:58:47.132Z,100072.31
